sensor_id;sensor_type;location;lat;lon;timestamp;P1;durP1;ratioP1;P2;durP2;ratioP2
63087;SDS011;49173;43.164;27.786;2023-02-12T00:00:40;36.97;;;19.70;;
63087;SDS011;49173;43.164;27.786;2023-02-12T00:03:08;40.88;;;19.15;;
63087;SDS011;49173;43.164;27.786;2023-02-12T00:05:38;35.90;;;17.75;;
63087;SDS011;49173;43.164;27.786;2023-02-12T00:08:06;57.85;;;30.42;;
63087;SDS011;49173;43.164;27.786;2023-02-12T00:10:33;66.63;;;33.25;;
63087;SDS011;49173;43.164;27.786;2023-02-12T00:13:00;55.42;;;26.92;;
63087;SDS011;49173;43.164;27.786;2023-02-12T00:15:26;40.92;;;21.30;;
63087;SDS011;49173;43.164;27.786;2023-02-12T00:17:52;37.78;;;20.05;;
63087;SDS011;49173;43.164;27.786;2023-02-12T00:20:18;45.50;;;21.00;;
63087;SDS011;49173;43.164;27.786;2023-02-12T00:22:44;30.42;;;14.98;;
63087;SDS011;49173;43.164;27.786;2023-02-12T00:25:09;22.08;;;11.05;;
63087;SDS011;49173;43.164;27.786;2023-02-12T00:27:38;19.10;;;9.85;;
63087;SDS011;49173;43.164;27.786;2023-02-12T00:30:05;14.52;;;8.77;;
63087;SDS011;49173;43.164;27.786;2023-02-12T00:32:32;13.00;;;7.82;;
63087;SDS011;49173;43.164;27.786;2023-02-12T00:34:59;46.35;;;20.85;;
63087;SDS011;49173;43.164;27.786;2023-02-12T00:37:25;40.70;;;16.98;;
63087;SDS011;49173;43.164;27.786;2023-02-12T00:39:51;39.97;;;18.45;;
63087;SDS011;49173;43.164;27.786;2023-02-12T00:42:16;52.55;;;22.77;;
63087;SDS011;49173;43.164;27.786;2023-02-12T00:44:42;59.92;;;25.52;;
63087;SDS011;49173;43.164;27.786;2023-02-12T00:47:08;62.83;;;25.63;;
63087;SDS011;49173;43.164;27.786;2023-02-12T00:49:34;52.80;;;22.08;;
63087;SDS011;49173;43.164;27.786;2023-02-12T00:52:02;58.08;;;23.48;;
63087;SDS011;49173;43.164;27.786;2023-02-12T00:54:29;44.33;;;21.70;;
63087;SDS011;49173;43.164;27.786;2023-02-12T00:56:56;47.45;;;22.25;;
63087;SDS011;49173;43.164;27.786;2023-02-12T00:59:22;49.42;;;22.27;;
63087;SDS011;49173;43.164;27.786;2023-02-12T01:01:49;48.35;;;21.40;;
63087;SDS011;49173;43.164;27.786;2023-02-12T01:04:17;48.13;;;21.67;;
63087;SDS011;49173;43.164;27.786;2023-02-12T01:06:43;40.47;;;20.40;;
63087;SDS011;49173;43.164;27.786;2023-02-12T01:09:09;34.88;;;17.83;;
63087;SDS011;49173;43.164;27.786;2023-02-12T01:11:35;27.27;;;13.45;;
63087;SDS011;49173;43.164;27.786;2023-02-12T01:14:01;22.25;;;11.95;;
63087;SDS011;49173;43.164;27.786;2023-02-12T01:16:28;24.30;;;10.60;;
63087;SDS011;49173;43.164;27.786;2023-02-12T01:18:56;18.63;;;10.43;;
63087;SDS011;49173;43.164;27.786;2023-02-12T01:21:23;20.58;;;11.63;;
63087;SDS011;49173;43.164;27.786;2023-02-12T01:23:51;22.30;;;11.55;;
63087;SDS011;49173;43.164;27.786;2023-02-12T01:26:17;18.55;;;11.30;;
63087;SDS011;49173;43.164;27.786;2023-02-12T01:28:47;18.38;;;10.32;;
63087;SDS011;49173;43.164;27.786;2023-02-12T01:31:16;24.95;;;11.07;;
63087;SDS011;49173;43.164;27.786;2023-02-12T01:33:48;24.05;;;13.10;;
63087;SDS011;49173;43.164;27.786;2023-02-12T01:36:16;41.70;;;19.67;;
63087;SDS011;49173;43.164;27.786;2023-02-12T01:38:42;36.72;;;17.75;;
63087;SDS011;49173;43.164;27.786;2023-02-12T01:41:10;52.72;;;22.17;;
63087;SDS011;49173;43.164;27.786;2023-02-12T01:43:38;45.63;;;19.33;;
63087;SDS011;49173;43.164;27.786;2023-02-12T01:46:04;59.85;;;27.25;;
63087;SDS011;49173;43.164;27.786;2023-02-12T01:48:34;56.95;;;26.65;;
63087;SDS011;49173;43.164;27.786;2023-02-12T01:51:13;55.38;;;23.33;;
63087;SDS011;49173;43.164;27.786;2023-02-12T01:53:48;60.22;;;25.40;;
63087;SDS011;49173;43.164;27.786;2023-02-12T01:56:17;38.22;;;18.20;;
63087;SDS011;49173;43.164;27.786;2023-02-12T01:58:43;28.67;;;12.00;;
63087;SDS011;49173;43.164;27.786;2023-02-12T02:01:15;17.48;;;9.93;;
63087;SDS011;49173;43.164;27.786;2023-02-12T02:03:45;19.60;;;11.82;;
63087;SDS011;49173;43.164;27.786;2023-02-12T02:06:15;19.25;;;10.30;;
63087;SDS011;49173;43.164;27.786;2023-02-12T02:11:11;13.02;;;8.27;;
63087;SDS011;49173;43.164;27.786;2023-02-12T02:13:55;22.65;;;9.57;;
63087;SDS011;49173;43.164;27.786;2023-02-12T02:17:02;15.73;;;9.38;;
63087;SDS011;49173;43.164;27.786;2023-02-12T02:19:43;14.15;;;9.55;;
63087;SDS011;49173;43.164;27.786;2023-02-12T02:22:37;17.40;;;9.10;;
63087;SDS011;49173;43.164;27.786;2023-02-12T02:25:19;19.50;;;9.40;;
63087;SDS011;49173;43.164;27.786;2023-02-12T02:34:08;16.38;;;8.90;;
63087;SDS011;49173;43.164;27.786;2023-02-12T02:36:44;16.40;;;9.13;;
63087;SDS011;49173;43.164;27.786;2023-02-12T02:39:16;20.20;;;10.02;;
63087;SDS011;49173;43.164;27.786;2023-02-12T02:41:52;13.23;;;7.95;;
63087;SDS011;49173;43.164;27.786;2023-02-12T02:44:27;14.30;;;8.20;;
63087;SDS011;49173;43.164;27.786;2023-02-12T02:47:16;12.90;;;7.90;;
63087;SDS011;49173;43.164;27.786;2023-02-12T02:49:50;14.35;;;8.10;;
63087;SDS011;49173;43.164;27.786;2023-02-12T02:52:25;13.35;;;8.05;;
63087;SDS011;49173;43.164;27.786;2023-02-12T02:55:03;15.55;;;8.43;;
63087;SDS011;49173;43.164;27.786;2023-02-12T02:57:40;16.20;;;9.20;;
63087;SDS011;49173;43.164;27.786;2023-02-12T03:02:37;24.27;;;11.80;;
63087;SDS011;49173;43.164;27.786;2023-02-12T03:05:49;28.60;;;12.05;;
63087;SDS011;49173;43.164;27.786;2023-02-12T03:08:13;22.30;;;11.15;;
63087;SDS011;49173;43.164;27.786;2023-02-12T03:11:26;22.50;;;11.57;;
63087;SDS011;49173;43.164;27.786;2023-02-12T03:13:58;35.65;;;17.15;;
63087;SDS011;49173;43.164;27.786;2023-02-12T03:16:49;29.85;;;16.95;;
63087;SDS011;49173;43.164;27.786;2023-02-12T03:19:17;22.25;;;13.13;;
63087;SDS011;49173;43.164;27.786;2023-02-12T03:21:51;18.50;;;10.60;;
63087;SDS011;49173;43.164;27.786;2023-02-12T03:27:02;22.85;;;10.80;;
63087;SDS011;49173;43.164;27.786;2023-02-12T03:29:31;19.63;;;11.07;;
63087;SDS011;49173;43.164;27.786;2023-02-12T03:32:01;17.27;;;10.32;;
63087;SDS011;49173;43.164;27.786;2023-02-12T03:37:49;18.55;;;10.52;;
63087;SDS011;49173;43.164;27.786;2023-02-12T03:40:24;25.80;;;12.52;;
63087;SDS011;49173;43.164;27.786;2023-02-12T03:45:54;24.05;;;13.13;;
63087;SDS011;49173;43.164;27.786;2023-02-12T03:51:43;34.05;;;17.25;;
63087;SDS011;49173;43.164;27.786;2023-02-12T03:53:55;30.60;;;15.57;;
63087;SDS011;49173;43.164;27.786;2023-02-12T03:56:27;28.20;;;15.93;;
63087;SDS011;49173;43.164;27.786;2023-02-12T03:58:59;28.05;;;14.80;;
63087;SDS011;49173;43.164;27.786;2023-02-12T04:01:25;27.30;;;13.95;;
63087;SDS011;49173;43.164;27.786;2023-02-12T04:03:52;24.67;;;13.77;;
63087;SDS011;49173;43.164;27.786;2023-02-12T04:06:19;26.95;;;14.15;;
63087;SDS011;49173;43.164;27.786;2023-02-12T04:08:48;22.80;;;13.88;;
63087;SDS011;49173;43.164;27.786;2023-02-12T04:11:19;26.58;;;14.98;;
63087;SDS011;49173;43.164;27.786;2023-02-12T04:17:05;21.65;;;13.38;;
63087;SDS011;49173;43.164;27.786;2023-02-12T04:22:42;24.98;;;13.55;;
63087;SDS011;49173;43.164;27.786;2023-02-12T04:28:15;28.35;;;14.40;;
63087;SDS011;49173;43.164;27.786;2023-02-12T04:31:17;24.77;;;13.80;;
63087;SDS011;49173;43.164;27.786;2023-02-12T04:34:01;25.20;;;14.52;;
63087;SDS011;49173;43.164;27.786;2023-02-12T04:36:40;25.52;;;13.93;;
63087;SDS011;49173;43.164;27.786;2023-02-12T04:39:21;24.10;;;14.85;;
63087;SDS011;49173;43.164;27.786;2023-02-12T04:41:50;28.30;;;14.27;;
63087;SDS011;49173;43.164;27.786;2023-02-12T04:44:17;29.85;;;14.50;;
63087;SDS011;49173;43.164;27.786;2023-02-12T04:46:55;36.13;;;17.83;;
63087;SDS011;49173;43.164;27.786;2023-02-12T04:49:21;32.60;;;16.52;;
63087;SDS011;49173;43.164;27.786;2023-02-12T04:51:48;36.05;;;17.45;;
63087;SDS011;49173;43.164;27.786;2023-02-12T04:54:14;34.85;;;16.83;;
63087;SDS011;49173;43.164;27.786;2023-02-12T04:56:42;30.95;;;15.48;;
63087;SDS011;49173;43.164;27.786;2023-02-12T04:59:08;31.38;;;15.70;;
63087;SDS011;49173;43.164;27.786;2023-02-12T05:01:34;29.48;;;15.55;;
63087;SDS011;49173;43.164;27.786;2023-02-12T05:04:01;28.50;;;16.25;;
63087;SDS011;49173;43.164;27.786;2023-02-12T05:06:27;39.22;;;17.95;;
63087;SDS011;49173;43.164;27.786;2023-02-12T05:08:55;31.63;;;16.92;;
63087;SDS011;49173;43.164;27.786;2023-02-12T05:11:22;32.97;;;16.60;;
63087;SDS011;49173;43.164;27.786;2023-02-12T05:13:49;34.22;;;18.63;;
63087;SDS011;49173;43.164;27.786;2023-02-12T05:16:18;33.67;;;18.93;;
63087;SDS011;49173;43.164;27.786;2023-02-12T05:18:45;46.70;;;22.77;;
63087;SDS011;49173;43.164;27.786;2023-02-12T05:21:19;49.50;;;23.38;;
63087;SDS011;49173;43.164;27.786;2023-02-12T05:23:47;46.45;;;24.15;;
63087;SDS011;49173;43.164;27.786;2023-02-12T05:26:17;41.10;;;23.55;;
63087;SDS011;49173;43.164;27.786;2023-02-12T05:28:46;43.15;;;23.70;;
63087;SDS011;49173;43.164;27.786;2023-02-12T05:31:14;39.85;;;23.30;;
63087;SDS011;49173;43.164;27.786;2023-02-12T05:33:45;48.40;;;23.02;;
63087;SDS011;49173;43.164;27.786;2023-02-12T05:36:13;54.17;;;30.23;;
63087;SDS011;49173;43.164;27.786;2023-02-12T05:38:50;38.72;;;22.42;;
63087;SDS011;49173;43.164;27.786;2023-02-12T05:41:19;37.47;;;21.35;;
63087;SDS011;49173;43.164;27.786;2023-02-12T05:43:48;33.20;;;19.60;;
63087;SDS011;49173;43.164;27.786;2023-02-12T05:46:16;30.50;;;19.00;;
63087;SDS011;49173;43.164;27.786;2023-02-12T05:48:43;31.98;;;19.20;;
63087;SDS011;49173;43.164;27.786;2023-02-12T05:51:15;33.63;;;20.05;;
63087;SDS011;49173;43.164;27.786;2023-02-12T05:53:44;33.17;;;19.70;;
63087;SDS011;49173;43.164;27.786;2023-02-12T05:56:20;39.00;;;20.15;;
63087;SDS011;49173;43.164;27.786;2023-02-12T05:58:58;41.33;;;21.60;;
63087;SDS011;49173;43.164;27.786;2023-02-12T06:01:29;40.83;;;23.35;;
63087;SDS011;49173;43.164;27.786;2023-02-12T06:04:02;42.15;;;24.73;;
63087;SDS011;49173;43.164;27.786;2023-02-12T06:06:30;47.10;;;27.20;;
63087;SDS011;49173;43.164;27.786;2023-02-12T06:08:57;43.85;;;24.73;;
63087;SDS011;49173;43.164;27.786;2023-02-12T06:11:27;39.80;;;23.15;;
63087;SDS011;49173;43.164;27.786;2023-02-12T06:13:55;36.25;;;21.23;;
63087;SDS011;49173;43.164;27.786;2023-02-12T06:16:22;35.67;;;20.98;;
63087;SDS011;49173;43.164;27.786;2023-02-12T06:18:52;31.30;;;19.10;;
63087;SDS011;49173;43.164;27.786;2023-02-12T06:21:22;29.30;;;17.73;;
63087;SDS011;49173;43.164;27.786;2023-02-12T06:23:52;33.65;;;18.75;;
63087;SDS011;49173;43.164;27.786;2023-02-12T06:26:20;32.15;;;17.98;;
63087;SDS011;49173;43.164;27.786;2023-02-12T06:28:47;33.83;;;19.45;;
63087;SDS011;49173;43.164;27.786;2023-02-12T06:33:47;39.05;;;21.83;;
63087;SDS011;49173;43.164;27.786;2023-02-12T06:36:13;33.35;;;20.15;;
63087;SDS011;49173;43.164;27.786;2023-02-12T06:38:41;38.28;;;22.85;;
63087;SDS011;49173;43.164;27.786;2023-02-12T06:41:08;37.28;;;21.95;;
63087;SDS011;49173;43.164;27.786;2023-02-12T06:43:38;34.22;;;19.73;;
63087;SDS011;49173;43.164;27.786;2023-02-12T06:46:06;36.60;;;20.02;;
63087;SDS011;49173;43.164;27.786;2023-02-12T06:48:35;35.90;;;20.63;;
63087;SDS011;49173;43.164;27.786;2023-02-12T06:53:43;31.47;;;20.63;;
63087;SDS011;49173;43.164;27.786;2023-02-12T06:56:10;32.90;;;20.33;;
63087;SDS011;49173;43.164;27.786;2023-02-12T06:58:40;34.20;;;19.95;;
63087;SDS011;49173;43.164;27.786;2023-02-12T07:01:15;37.78;;;21.90;;
63087;SDS011;49173;43.164;27.786;2023-02-12T07:03:49;33.13;;;20.83;;
63087;SDS011;49173;43.164;27.786;2023-02-12T07:06:28;37.88;;;21.42;;
63087;SDS011;49173;43.164;27.786;2023-02-12T07:08:55;42.65;;;24.08;;
63087;SDS011;49173;43.164;27.786;2023-02-12T07:11:25;42.33;;;25.20;;
63087;SDS011;49173;43.164;27.786;2023-02-12T07:13:57;38.00;;;23.08;;
63087;SDS011;49173;43.164;27.786;2023-02-12T07:16:23;44.05;;;24.67;;
63087;SDS011;49173;43.164;27.786;2023-02-12T07:18:51;44.85;;;26.73;;
63087;SDS011;49173;43.164;27.786;2023-02-12T07:21:22;41.30;;;24.23;;
63087;SDS011;49173;43.164;27.786;2023-02-12T07:23:49;33.63;;;21.33;;
63087;SDS011;49173;43.164;27.786;2023-02-12T07:26:22;31.77;;;20.92;;
63087;SDS011;49173;43.164;27.786;2023-02-12T07:28:48;35.28;;;21.92;;
63087;SDS011;49173;43.164;27.786;2023-02-12T07:31:19;43.65;;;23.42;;
63087;SDS011;49173;43.164;27.786;2023-02-12T07:33:52;36.22;;;22.27;;
63087;SDS011;49173;43.164;27.786;2023-02-12T07:36:27;37.55;;;22.35;;
63087;SDS011;49173;43.164;27.786;2023-02-12T07:38:55;38.35;;;23.10;;
63087;SDS011;49173;43.164;27.786;2023-02-12T07:41:32;37.15;;;20.58;;
63087;SDS011;49173;43.164;27.786;2023-02-12T07:44:01;34.75;;;20.50;;
63087;SDS011;49173;43.164;27.786;2023-02-12T07:46:35;30.65;;;19.10;;
63087;SDS011;49173;43.164;27.786;2023-02-12T07:49:11;34.20;;;19.75;;
63087;SDS011;49173;43.164;27.786;2023-02-12T07:51:49;32.33;;;20.65;;
63087;SDS011;49173;43.164;27.786;2023-02-12T07:54:21;34.50;;;21.30;;
63087;SDS011;49173;43.164;27.786;2023-02-12T07:56:50;36.63;;;20.73;;
63087;SDS011;49173;43.164;27.786;2023-02-12T07:59:17;31.25;;;19.85;;
63087;SDS011;49173;43.164;27.786;2023-02-12T08:01:46;32.60;;;20.00;;
63087;SDS011;49173;43.164;27.786;2023-02-12T08:04:19;35.33;;;20.73;;
63087;SDS011;49173;43.164;27.786;2023-02-12T08:06:56;37.13;;;21.55;;
63087;SDS011;49173;43.164;27.786;2023-02-12T08:09:29;34.30;;;19.95;;
63087;SDS011;49173;43.164;27.786;2023-02-12T08:11:56;34.35;;;21.58;;
63087;SDS011;49173;43.164;27.786;2023-02-12T08:14:26;34.75;;;20.27;;
63087;SDS011;49173;43.164;27.786;2023-02-12T08:16:53;34.47;;;20.38;;
63087;SDS011;49173;43.164;27.786;2023-02-12T08:19:27;34.00;;;19.42;;
63087;SDS011;49173;43.164;27.786;2023-02-12T08:21:54;35.92;;;20.83;;
63087;SDS011;49173;43.164;27.786;2023-02-12T08:24:22;33.60;;;20.85;;
63087;SDS011;49173;43.164;27.786;2023-02-12T08:26:49;30.90;;;19.60;;
63087;SDS011;49173;43.164;27.786;2023-02-12T08:29:16;31.63;;;19.20;;
63087;SDS011;49173;43.164;27.786;2023-02-12T08:31:47;38.45;;;21.42;;
63087;SDS011;49173;43.164;27.786;2023-02-12T08:34:18;37.67;;;22.02;;
63087;SDS011;49173;43.164;27.786;2023-02-12T08:36:47;40.97;;;22.77;;
63087;SDS011;49173;43.164;27.786;2023-02-12T08:39:16;37.88;;;21.95;;
63087;SDS011;49173;43.164;27.786;2023-02-12T08:41:52;37.75;;;21.10;;
63087;SDS011;49173;43.164;27.786;2023-02-12T08:44:20;37.50;;;21.58;;
63087;SDS011;49173;43.164;27.786;2023-02-12T08:46:48;31.92;;;20.27;;
63087;SDS011;49173;43.164;27.786;2023-02-12T08:49:18;31.10;;;19.10;;
63087;SDS011;49173;43.164;27.786;2023-02-12T08:51:47;33.88;;;18.80;;
63087;SDS011;49173;43.164;27.786;2023-02-12T08:54:33;32.55;;;21.02;;
63087;SDS011;49173;43.164;27.786;2023-02-12T08:57:01;48.63;;;28.48;;
63087;SDS011;49173;43.164;27.786;2023-02-12T08:59:29;36.90;;;22.58;;
63087;SDS011;49173;43.164;27.786;2023-02-12T09:01:55;34.22;;;19.83;;
63087;SDS011;49173;43.164;27.786;2023-02-12T09:04:24;28.75;;;18.23;;
63087;SDS011;49173;43.164;27.786;2023-02-12T09:06:52;32.10;;;19.25;;
63087;SDS011;49173;43.164;27.786;2023-02-12T09:09:21;28.92;;;17.90;;
63087;SDS011;49173;43.164;27.786;2023-02-12T09:11:48;28.95;;;18.90;;
63087;SDS011;49173;43.164;27.786;2023-02-12T09:14:16;32.28;;;19.33;;
63087;SDS011;49173;43.164;27.786;2023-02-12T09:16:53;32.40;;;20.08;;
63087;SDS011;49173;43.164;27.786;2023-02-12T09:19:21;29.20;;;17.92;;
63087;SDS011;49173;43.164;27.786;2023-02-12T09:21:50;29.40;;;18.50;;
63087;SDS011;49173;43.164;27.786;2023-02-12T09:26:45;29.38;;;17.13;;
63087;SDS011;49173;43.164;27.786;2023-02-12T09:29:13;32.88;;;17.73;;
63087;SDS011;49173;43.164;27.786;2023-02-12T09:31:42;29.17;;;18.08;;
63087;SDS011;49173;43.164;27.786;2023-02-12T09:34:10;30.33;;;18.10;;
63087;SDS011;49173;43.164;27.786;2023-02-12T09:36:37;32.15;;;18.55;;
63087;SDS011;49173;43.164;27.786;2023-02-12T09:39:03;29.67;;;17.80;;
63087;SDS011;49173;43.164;27.786;2023-02-12T09:41:45;34.00;;;20.95;;
63087;SDS011;49173;43.164;27.786;2023-02-12T09:44:43;33.83;;;19.65;;
63087;SDS011;49173;43.164;27.786;2023-02-12T09:52:47;28.27;;;15.93;;
63087;SDS011;49173;43.164;27.786;2023-02-12T09:55:16;28.05;;;17.85;;
63087;SDS011;49173;43.164;27.786;2023-02-12T09:57:48;25.58;;;16.42;;
63087;SDS011;49173;43.164;27.786;2023-02-12T10:00:33;25.70;;;15.68;;
63087;SDS011;49173;43.164;27.786;2023-02-12T10:03:01;22.90;;;15.10;;
63087;SDS011;49173;43.164;27.786;2023-02-12T10:05:37;30.88;;;16.38;;
63087;SDS011;49173;43.164;27.786;2023-02-12T10:11:32;24.35;;;14.10;;
63087;SDS011;49173;43.164;27.786;2023-02-12T10:22:52;26.88;;;16.05;;
63087;SDS011;49173;43.164;27.786;2023-02-12T10:28:11;24.08;;;15.43;;
63087;SDS011;49173;43.164;27.786;2023-02-12T10:30:52;29.35;;;17.17;;
63087;SDS011;49173;43.164;27.786;2023-02-12T10:33:31;26.23;;;16.63;;
63087;SDS011;49173;43.164;27.786;2023-02-12T10:38:52;29.90;;;16.90;;
63087;SDS011;49173;43.164;27.786;2023-02-12T10:41:23;25.08;;;16.65;;
63087;SDS011;49173;43.164;27.786;2023-02-12T10:43:57;27.60;;;15.68;;
63087;SDS011;49173;43.164;27.786;2023-02-12T10:46:28;25.50;;;15.60;;
63087;SDS011;49173;43.164;27.786;2023-02-12T10:48:56;27.98;;;16.88;;
63087;SDS011;49173;43.164;27.786;2023-02-12T10:54:33;28.60;;;16.33;;
63087;SDS011;49173;43.164;27.786;2023-02-12T10:57:11;24.48;;;15.75;;
63087;SDS011;49173;43.164;27.786;2023-02-12T11:00:13;25.25;;;15.50;;
63087;SDS011;49173;43.164;27.786;2023-02-12T11:03:01;26.92;;;15.38;;
63087;SDS011;49173;43.164;27.786;2023-02-12T11:05:39;23.65;;;15.35;;
63087;SDS011;49173;43.164;27.786;2023-02-12T11:11:10;23.13;;;14.50;;
63087;SDS011;49173;43.164;27.786;2023-02-12T11:13:45;27.70;;;15.93;;
63087;SDS011;49173;43.164;27.786;2023-02-12T11:19:28;24.15;;;14.43;;
63087;SDS011;49173;43.164;27.786;2023-02-12T11:22:12;24.02;;;14.50;;
63087;SDS011;49173;43.164;27.786;2023-02-12T11:24:45;26.15;;;13.98;;
63087;SDS011;49173;43.164;27.786;2023-02-12T11:29:41;24.45;;;14.63;;
63087;SDS011;49173;43.164;27.786;2023-02-12T11:32:15;20.95;;;13.60;;
63087;SDS011;49173;43.164;27.786;2023-02-12T11:37:31;24.08;;;14.63;;
63087;SDS011;49173;43.164;27.786;2023-02-12T11:40:04;24.05;;;14.20;;
63087;SDS011;49173;43.164;27.786;2023-02-12T11:42:33;24.02;;;13.63;;
63087;SDS011;49173;43.164;27.786;2023-02-12T11:45:03;23.25;;;15.02;;
63087;SDS011;49173;43.164;27.786;2023-02-12T11:47:42;25.33;;;14.63;;
63087;SDS011;49173;43.164;27.786;2023-02-12T11:50:17;24.83;;;16.15;;
63087;SDS011;49173;43.164;27.786;2023-02-12T11:53:03;22.25;;;15.57;;
63087;SDS011;49173;43.164;27.786;2023-02-12T11:55:37;30.55;;;16.67;;
63087;SDS011;49173;43.164;27.786;2023-02-12T12:04:20;18.65;;;11.85;;
63087;SDS011;49173;43.164;27.786;2023-02-12T12:09:06;28.35;;;12.88;;
63087;SDS011;49173;43.164;27.786;2023-02-12T12:14:33;18.83;;;11.55;;
63087;SDS011;49173;43.164;27.786;2023-02-12T12:17:37;20.45;;;11.85;;
63087;SDS011;49173;43.164;27.786;2023-02-12T12:20:34;28.02;;;12.05;;
63087;SDS011;49173;43.164;27.786;2023-02-12T12:23:25;23.00;;;13.02;;
63087;SDS011;49173;43.164;27.786;2023-02-12T12:26:03;24.60;;;13.45;;
63087;SDS011;49173;43.164;27.786;2023-02-12T12:28:46;31.52;;;14.73;;
63087;SDS011;49173;43.164;27.786;2023-02-12T12:31:26;21.00;;;13.88;;
63087;SDS011;49173;43.164;27.786;2023-02-12T12:34:06;27.73;;;13.68;;
63087;SDS011;49173;43.164;27.786;2023-02-12T12:42:10;30.98;;;14.70;;
63087;SDS011;49173;43.164;27.786;2023-02-12T12:53:34;25.23;;;15.02;;
63087;SDS011;49173;43.164;27.786;2023-02-12T12:56:16;26.33;;;14.80;;
63087;SDS011;49173;43.164;27.786;2023-02-12T13:04:58;28.02;;;14.15;;
63087;SDS011;49173;43.164;27.786;2023-02-12T13:08:06;27.75;;;14.85;;
63087;SDS011;49173;43.164;27.786;2023-02-12T13:13:52;23.70;;;14.73;;
63087;SDS011;49173;43.164;27.786;2023-02-12T13:16:32;27.60;;;16.50;;
63087;SDS011;49173;43.164;27.786;2023-02-12T13:19:07;24.85;;;14.80;;
63087;SDS011;49173;43.164;27.786;2023-02-12T13:22:07;24.48;;;13.10;;
63087;SDS011;49173;43.164;27.786;2023-02-12T13:27:33;26.63;;;15.27;;
63087;SDS011;49173;43.164;27.786;2023-02-12T13:30:16;23.00;;;14.93;;
63087;SDS011;49173;43.164;27.786;2023-02-12T13:33:39;25.65;;;15.70;;
63087;SDS011;49173;43.164;27.786;2023-02-12T13:36:13;28.33;;;14.15;;
63087;SDS011;49173;43.164;27.786;2023-02-12T13:38:45;25.20;;;15.00;;
63087;SDS011;49173;43.164;27.786;2023-02-12T13:41:22;23.52;;;14.40;;
63087;SDS011;49173;43.164;27.786;2023-02-12T13:49:08;25.90;;;14.98;;
63087;SDS011;49173;43.164;27.786;2023-02-12T13:52:08;24.20;;;15.10;;
63087;SDS011;49173;43.164;27.786;2023-02-12T14:00:55;25.05;;;14.85;;
63087;SDS011;49173;43.164;27.786;2023-02-12T14:03:33;31.73;;;16.58;;
63087;SDS011;49173;43.164;27.786;2023-02-12T14:08:50;26.42;;;15.45;;
63087;SDS011;49173;43.164;27.786;2023-02-12T14:11:24;22.95;;;14.63;;
63087;SDS011;49173;43.164;27.786;2023-02-12T14:13:58;23.73;;;15.05;;
63087;SDS011;49173;43.164;27.786;2023-02-12T14:22:08;28.50;;;16.42;;
63087;SDS011;49173;43.164;27.786;2023-02-12T14:24:47;24.25;;;15.18;;
63087;SDS011;49173;43.164;27.786;2023-02-12T14:30:00;31.02;;;17.60;;
63087;SDS011;49173;43.164;27.786;2023-02-12T14:32:55;29.52;;;17.60;;
63087;SDS011;49173;43.164;27.786;2023-02-12T14:35:41;29.02;;;16.38;;
63087;SDS011;49173;43.164;27.786;2023-02-12T14:40:44;28.08;;;16.02;;
63087;SDS011;49173;43.164;27.786;2023-02-12T14:43:36;27.90;;;15.93;;
63087;SDS011;49173;43.164;27.786;2023-02-12T14:48:54;26.58;;;15.77;;
63087;SDS011;49173;43.164;27.786;2023-02-12T14:54:04;29.38;;;16.90;;
63087;SDS011;49173;43.164;27.786;2023-02-12T14:56:47;28.02;;;16.70;;
63087;SDS011;49173;43.164;27.786;2023-02-12T14:59:19;28.75;;;17.35;;
63087;SDS011;49173;43.164;27.786;2023-02-12T15:04:19;25.60;;;16.30;;
63087;SDS011;49173;43.164;27.786;2023-02-12T15:06:56;27.58;;;16.48;;
63087;SDS011;49173;43.164;27.786;2023-02-12T15:09:31;26.02;;;16.20;;
63087;SDS011;49173;43.164;27.786;2023-02-12T15:12:20;25.90;;;16.30;;
63087;SDS011;49173;43.164;27.786;2023-02-12T15:18:21;24.42;;;14.80;;
63087;SDS011;49173;43.164;27.786;2023-02-12T15:21:05;21.05;;;14.25;;
63087;SDS011;49173;43.164;27.786;2023-02-12T15:23:56;23.20;;;14.23;;
63087;SDS011;49173;43.164;27.786;2023-02-12T15:26:29;23.40;;;14.60;;
63087;SDS011;49173;43.164;27.786;2023-02-12T15:28:58;21.50;;;14.13;;
63087;SDS011;49173;43.164;27.786;2023-02-12T15:31:30;25.17;;;15.98;;
63087;SDS011;49173;43.164;27.786;2023-02-12T15:33:59;22.08;;;14.15;;
63087;SDS011;49173;43.164;27.786;2023-02-12T15:36:29;23.00;;;13.98;;
63087;SDS011;49173;43.164;27.786;2023-02-12T15:39:02;22.40;;;12.73;;
63087;SDS011;49173;43.164;27.786;2023-02-12T15:43:58;22.25;;;13.30;;
63087;SDS011;49173;43.164;27.786;2023-02-12T15:46:26;22.83;;;14.25;;
63087;SDS011;49173;43.164;27.786;2023-02-12T15:48:56;22.65;;;13.23;;
63087;SDS011;49173;43.164;27.786;2023-02-12T15:51:36;21.13;;;13.73;;
63087;SDS011;49173;43.164;27.786;2023-02-12T15:54:07;26.45;;;16.80;;
63087;SDS011;49173;43.164;27.786;2023-02-12T15:56:47;21.40;;;13.27;;
63087;SDS011;49173;43.164;27.786;2023-02-12T15:59:19;23.85;;;14.65;;
63087;SDS011;49173;43.164;27.786;2023-02-12T16:01:55;21.33;;;13.75;;
63087;SDS011;49173;43.164;27.786;2023-02-12T16:04:25;25.85;;;15.48;;
63087;SDS011;49173;43.164;27.786;2023-02-12T16:07:00;19.83;;;13.43;;
63087;SDS011;49173;43.164;27.786;2023-02-12T16:09:32;23.80;;;14.20;;
63087;SDS011;49173;43.164;27.786;2023-02-12T16:12:03;23.75;;;13.60;;
63087;SDS011;49173;43.164;27.786;2023-02-12T16:14:40;23.15;;;15.07;;
63087;SDS011;49173;43.164;27.786;2023-02-12T16:22:36;21.77;;;12.52;;
63087;SDS011;49173;43.164;27.786;2023-02-12T16:28:17;24.50;;;15.55;;
63087;SDS011;49173;43.164;27.786;2023-02-12T16:31:08;25.80;;;16.65;;
63087;SDS011;49173;43.164;27.786;2023-02-12T16:38:57;17.70;;;11.73;;
63087;SDS011;49173;43.164;27.786;2023-02-12T16:41:32;19.23;;;12.55;;
63087;SDS011;49173;43.164;27.786;2023-02-12T16:46:48;19.80;;;13.60;;
63087;SDS011;49173;43.164;27.786;2023-02-12T16:49:20;26.20;;;14.20;;
63087;SDS011;49173;43.164;27.786;2023-02-12T16:51:50;19.58;;;13.02;;
63087;SDS011;49173;43.164;27.786;2023-02-12T16:54:40;20.25;;;12.15;;
63087;SDS011;49173;43.164;27.786;2023-02-12T16:57:07;21.35;;;13.38;;
63087;SDS011;49173;43.164;27.786;2023-02-12T16:59:38;24.75;;;14.48;;
63087;SDS011;49173;43.164;27.786;2023-02-12T17:02:11;22.55;;;13.80;;
63087;SDS011;49173;43.164;27.786;2023-02-12T17:04:40;23.00;;;13.60;;
63087;SDS011;49173;43.164;27.786;2023-02-12T17:07:18;24.00;;;14.82;;
63087;SDS011;49173;43.164;27.786;2023-02-12T17:09:50;24.60;;;15.05;;
63087;SDS011;49173;43.164;27.786;2023-02-12T17:12:19;28.55;;;16.85;;
63087;SDS011;49173;43.164;27.786;2023-02-12T17:14:48;31.10;;;19.07;;
63087;SDS011;49173;43.164;27.786;2023-02-12T17:17:20;27.40;;;16.20;;
63087;SDS011;49173;43.164;27.786;2023-02-12T17:19:47;26.90;;;15.90;;
63087;SDS011;49173;43.164;27.786;2023-02-12T17:22:19;25.38;;;16.40;;
63087;SDS011;49173;43.164;27.786;2023-02-12T17:25:01;42.53;;;24.70;;
63087;SDS011;49173;43.164;27.786;2023-02-12T17:27:30;23.08;;;14.82;;
63087;SDS011;49173;43.164;27.786;2023-02-12T17:29:59;31.08;;;18.95;;
63087;SDS011;49173;43.164;27.786;2023-02-12T17:32:30;25.77;;;16.42;;